sensor_id;sensor_type;location;lat;lon;timestamp;P1;durP1;ratioP1;P2;durP2;ratioP2
69511;SDS011;56709;52.036;4.644;2023-03-03T00:01:52;31.65;;;13.15;;
69511;SDS011;56709;52.036;4.644;2023-03-03T00:04:18;30.38;;;14.75;;
69511;SDS011;56709;52.036;4.644;2023-03-03T00:06:44;27.27;;;13.65;;
69511;SDS011;56709;52.036;4.644;2023-03-03T00:09:09;32.38;;;14.05;;
69511;SDS011;56709;52.036;4.644;2023-03-03T00:11:35;32.60;;;15.30;;
69511;SDS011;56709;52.036;4.644;2023-03-03T00:14:00;28.75;;;14.35;;
69511;SDS011;56709;52.036;4.644;2023-03-03T00:16:36;34.95;;;15.90;;
69511;SDS011;56709;52.036;4.644;2023-03-03T00:19:02;36.63;;;14.57;;
69511;SDS011;56709;52.036;4.644;2023-03-03T00:21:41;37.42;;;15.85;;
69511;SDS011;56709;52.036;4.644;2023-03-03T00:24:34;34.10;;;15.35;;
69511;SDS011;56709;52.036;4.644;2023-03-03T00:27:00;34.45;;;15.35;;
69511;SDS011;56709;52.036;4.644;2023-03-03T00:32:20;34.72;;;15.93;;
69511;SDS011;56709;52.036;4.644;2023-03-03T00:34:47;34.97;;;15.27;;
69511;SDS011;56709;52.036;4.644;2023-03-03T00:37:47;34.38;;;15.38;;
69511;SDS011;56709;52.036;4.644;2023-03-03T00:42:38;36.42;;;15.95;;
69511;SDS011;56709;52.036;4.644;2023-03-03T00:45:16;35.05;;;15.90;;
69511;SDS011;56709;52.036;4.644;2023-03-03T00:48:39;37.95;;;15.57;;
69511;SDS011;56709;52.036;4.644;2023-03-03T00:51:01;37.50;;;16.58;;
69511;SDS011;56709;52.036;4.644;2023-03-03T00:53:35;38.95;;;16.27;;
69511;SDS011;56709;52.036;4.644;2023-03-03T00:56:01;36.35;;;16.00;;
69511;SDS011;56709;52.036;4.644;2023-03-03T00:58:26;41.55;;;16.85;;
69511;SDS011;56709;52.036;4.644;2023-03-03T01:00:52;38.25;;;16.33;;
69511;SDS011;56709;52.036;4.644;2023-03-03T01:03:20;35.85;;;16.30;;
69511;SDS011;56709;52.036;4.644;2023-03-03T01:08:12;39.80;;;15.95;;
69511;SDS011;56709;52.036;4.644;2023-03-03T01:10:39;42.33;;;15.75;;
69511;SDS011;56709;52.036;4.644;2023-03-03T01:13:16;34.92;;;15.48;;
69511;SDS011;56709;52.036;4.644;2023-03-03T01:15:42;32.50;;;14.82;;
69511;SDS011;56709;52.036;4.644;2023-03-03T01:18:08;41.03;;;17.23;;
69511;SDS011;56709;52.036;4.644;2023-03-03T01:20:34;36.30;;;16.27;;
69511;SDS011;56709;52.036;4.644;2023-03-03T01:23:00;40.35;;;15.85;;
69511;SDS011;56709;52.036;4.644;2023-03-03T01:25:26;29.15;;;14.77;;
69511;SDS011;56709;52.036;4.644;2023-03-03T01:27:51;36.65;;;15.45;;
69511;SDS011;56709;52.036;4.644;2023-03-03T01:30:17;30.73;;;14.23;;
69511;SDS011;56709;52.036;4.644;2023-03-03T01:32:42;30.50;;;13.77;;
69511;SDS011;56709;52.036;4.644;2023-03-03T01:35:08;26.58;;;12.60;;
69511;SDS011;56709;52.036;4.644;2023-03-03T01:37:34;36.40;;;14.73;;
69511;SDS011;56709;52.036;4.644;2023-03-03T01:40:00;27.23;;;12.97;;
69511;SDS011;56709;52.036;4.644;2023-03-03T01:42:25;33.22;;;13.05;;
69511;SDS011;56709;52.036;4.644;2023-03-03T01:48:03;22.08;;;10.00;;
69511;SDS011;56709;52.036;4.644;2023-03-03T01:51:02;22.45;;;11.43;;
69511;SDS011;56709;52.036;4.644;2023-03-03T01:53:35;28.80;;;11.48;;
69511;SDS011;56709;52.036;4.644;2023-03-03T01:56:04;23.38;;;11.88;;
69511;SDS011;56709;52.036;4.644;2023-03-03T01:58:32;22.40;;;9.68;;
69511;SDS011;56709;52.036;4.644;2023-03-03T02:01:01;22.65;;;11.48;;
69511;SDS011;56709;52.036;4.644;2023-03-03T02:03:29;21.83;;;10.88;;
69511;SDS011;56709;52.036;4.644;2023-03-03T02:05:56;25.40;;;10.88;;
69511;SDS011;56709;52.036;4.644;2023-03-03T02:08:25;19.98;;;9.93;;
69511;SDS011;56709;52.036;4.644;2023-03-03T02:10:53;19.95;;;9.82;;
69511;SDS011;56709;52.036;4.644;2023-03-03T02:13:19;20.38;;;9.85;;
69511;SDS011;56709;52.036;4.644;2023-03-03T02:15:44;22.20;;;9.65;;
69511;SDS011;56709;52.036;4.644;2023-03-03T02:18:11;23.55;;;10.00;;
69511;SDS011;56709;52.036;4.644;2023-03-03T02:20:42;16.08;;;8.77;;
69511;SDS011;56709;52.036;4.644;2023-03-03T02:23:29;18.65;;;9.60;;
69511;SDS011;56709;52.036;4.644;2023-03-03T02:26:11;13.88;;;8.88;;
69511;SDS011;56709;52.036;4.644;2023-03-03T02:28:38;15.68;;;8.32;;
69511;SDS011;56709;52.036;4.644;2023-03-03T02:31:05;18.93;;;8.83;;
69511;SDS011;56709;52.036;4.644;2023-03-03T02:33:37;13.60;;;8.02;;
69511;SDS011;56709;52.036;4.644;2023-03-03T02:36:08;17.38;;;8.85;;
69511;SDS011;56709;52.036;4.644;2023-03-03T02:38:38;16.73;;;8.20;;
69511;SDS011;56709;52.036;4.644;2023-03-03T02:44:01;16.95;;;8.20;;
69511;SDS011;56709;52.036;4.644;2023-03-03T02:46:38;27.95;;;9.30;;
69511;SDS011;56709;52.036;4.644;2023-03-03T02:49:05;19.17;;;9.00;;
69511;SDS011;56709;52.036;4.644;2023-03-03T02:51:33;14.38;;;8.23;;
69511;SDS011;56709;52.036;4.644;2023-03-03T02:53:58;16.95;;;8.88;;
69511;SDS011;56709;52.036;4.644;2023-03-03T02:56:24;25.20;;;10.32;;
69511;SDS011;56709;52.036;4.644;2023-03-03T02:58:49;19.88;;;10.45;;
69511;SDS011;56709;52.036;4.644;2023-03-03T03:01:15;20.38;;;9.32;;
69511;SDS011;56709;52.036;4.644;2023-03-03T03:03:40;30.20;;;11.15;;
69511;SDS011;56709;52.036;4.644;2023-03-03T03:06:06;23.50;;;11.35;;
69511;SDS011;56709;52.036;4.644;2023-03-03T03:08:31;20.52;;;10.77;;
69511;SDS011;56709;52.036;4.644;2023-03-03T03:10:57;26.50;;;11.80;;
69511;SDS011;56709;52.036;4.644;2023-03-03T03:13:22;24.30;;;11.48;;
69511;SDS011;56709;52.036;4.644;2023-03-03T03:15:48;29.27;;;12.75;;
69511;SDS011;56709;52.036;4.644;2023-03-03T03:18:14;32.92;;;13.90;;
69511;SDS011;56709;52.036;4.644;2023-03-03T03:20:40;33.85;;;13.90;;
69511;SDS011;56709;52.036;4.644;2023-03-03T03:23:06;30.92;;;14.32;;
69511;SDS011;56709;52.036;4.644;2023-03-03T03:25:31;32.13;;;14.30;;
69511;SDS011;56709;52.036;4.644;2023-03-03T03:27:57;32.25;;;15.50;;
69511;SDS011;56709;52.036;4.644;2023-03-03T03:30:22;37.85;;;15.95;;
69511;SDS011;56709;52.036;4.644;2023-03-03T03:32:48;38.63;;;14.85;;
69511;SDS011;56709;52.036;4.644;2023-03-03T03:35:13;35.42;;;15.50;;
69511;SDS011;56709;52.036;4.644;2023-03-03T03:37:41;37.55;;;16.52;;
69511;SDS011;56709;52.036;4.644;2023-03-03T03:40:07;35.13;;;16.33;;
69511;SDS011;56709;52.036;4.644;2023-03-03T03:42:33;34.75;;;16.98;;
69511;SDS011;56709;52.036;4.644;2023-03-03T03:44:58;39.08;;;16.00;;
69511;SDS011;56709;52.036;4.644;2023-03-03T03:47:23;42.55;;;16.75;;
69511;SDS011;56709;52.036;4.644;2023-03-03T03:49:49;45.00;;;16.00;;
69511;SDS011;56709;52.036;4.644;2023-03-03T03:52:14;44.70;;;18.30;;
69511;SDS011;56709;52.036;4.644;2023-03-03T03:54:39;42.03;;;15.40;;
69511;SDS011;56709;52.036;4.644;2023-03-03T03:57:05;44.60;;;17.52;;
69511;SDS011;56709;52.036;4.644;2023-03-03T03:59:30;44.42;;;16.27;;
69511;SDS011;56709;52.036;4.644;2023-03-03T04:01:56;52.80;;;17.55;;
69511;SDS011;56709;52.036;4.644;2023-03-03T04:04:21;52.22;;;17.40;;
69511;SDS011;56709;52.036;4.644;2023-03-03T04:06:47;44.17;;;16.52;;
69511;SDS011;56709;52.036;4.644;2023-03-03T04:09:13;36.65;;;16.02;;
69511;SDS011;56709;52.036;4.644;2023-03-03T04:11:38;42.80;;;17.15;;
69511;SDS011;56709;52.036;4.644;2023-03-03T04:14:04;56.95;;;18.70;;
69511;SDS011;56709;52.036;4.644;2023-03-03T04:16:29;43.65;;;18.67;;
69511;SDS011;56709;52.036;4.644;2023-03-03T04:18:55;45.58;;;16.83;;
69511;SDS011;56709;52.036;4.644;2023-03-03T04:21:20;46.55;;;17.25;;
69511;SDS011;56709;52.036;4.644;2023-03-03T04:23:45;48.75;;;17.75;;
69511;SDS011;56709;52.036;4.644;2023-03-03T04:26:11;44.00;;;15.95;;
69511;SDS011;56709;52.036;4.644;2023-03-03T04:28:36;46.03;;;16.63;;
69511;SDS011;56709;52.036;4.644;2023-03-03T04:31:01;51.95;;;16.00;;
69511;SDS011;56709;52.036;4.644;2023-03-03T04:33:27;38.25;;;15.15;;
69511;SDS011;56709;52.036;4.644;2023-03-03T04:35:52;49.70;;;17.20;;
69511;SDS011;56709;52.036;4.644;2023-03-03T04:38:18;50.80;;;16.33;;
69511;SDS011;56709;52.036;4.644;2023-03-03T04:40:43;44.38;;;15.52;;
69511;SDS011;56709;52.036;4.644;2023-03-03T04:43:09;48.25;;;16.95;;
69511;SDS011;56709;52.036;4.644;2023-03-03T04:45:35;48.88;;;18.25;;
69511;SDS011;56709;52.036;4.644;2023-03-03T04:48:00;46.53;;;17.85;;
69511;SDS011;56709;52.036;4.644;2023-03-03T04:50:26;40.58;;;16.35;;
69511;SDS011;56709;52.036;4.644;2023-03-03T04:52:52;44.45;;;17.55;;
69511;SDS011;56709;52.036;4.644;2023-03-03T04:55:17;52.35;;;16.95;;
69511;SDS011;56709;52.036;4.644;2023-03-03T04:57:42;46.28;;;16.80;;
69511;SDS011;56709;52.036;4.644;2023-03-03T05:00:08;48.60;;;16.10;;
69511;SDS011;56709;52.036;4.644;2023-03-03T05:02:37;43.38;;;16.60;;
69511;SDS011;56709;52.036;4.644;2023-03-03T05:05:03;41.83;;;17.67;;
69511;SDS011;56709;52.036;4.644;2023-03-03T05:07:29;50.85;;;17.65;;
69511;SDS011;56709;52.036;4.644;2023-03-03T05:09:55;40.10;;;15.30;;
69511;SDS011;56709;52.036;4.644;2023-03-03T05:12:20;49.72;;;18.13;;
69511;SDS011;56709;52.036;4.644;2023-03-03T05:14:45;47.42;;;17.08;;
69511;SDS011;56709;52.036;4.644;2023-03-03T05:17:11;43.75;;;16.05;;
69511;SDS011;56709;52.036;4.644;2023-03-03T05:19:36;50.95;;;16.67;;
69511;SDS011;56709;52.036;4.644;2023-03-03T05:22:01;42.58;;;15.98;;
69511;SDS011;56709;52.036;4.644;2023-03-03T05:24:27;43.50;;;16.67;;
69511;SDS011;56709;52.036;4.644;2023-03-03T05:26:52;46.92;;;15.15;;
69511;SDS011;56709;52.036;4.644;2023-03-03T05:29:18;45.30;;;16.33;;
69511;SDS011;56709;52.036;4.644;2023-03-03T05:31:44;42.95;;;16.75;;
69511;SDS011;56709;52.036;4.644;2023-03-03T05:34:09;47.72;;;15.82;;
69511;SDS011;56709;52.036;4.644;2023-03-03T05:36:35;46.20;;;16.20;;
69511;SDS011;56709;52.036;4.644;2023-03-03T05:39:00;39.88;;;16.33;;
69511;SDS011;56709;52.036;4.644;2023-03-03T05:41:25;49.22;;;16.38;;
69511;SDS011;56709;52.036;4.644;2023-03-03T05:43:51;48.28;;;15.20;;
69511;SDS011;56709;52.036;4.644;2023-03-03T05:46:16;39.70;;;15.98;;
69511;SDS011;56709;52.036;4.644;2023-03-03T05:48:42;47.30;;;15.77;;
69511;SDS011;56709;52.036;4.644;2023-03-03T05:51:07;39.03;;;14.63;;
69511;SDS011;56709;52.036;4.644;2023-03-03T05:53:32;42.58;;;16.20;;
69511;SDS011;56709;52.036;4.644;2023-03-03T05:55:58;48.45;;;18.15;;
69511;SDS011;56709;52.036;4.644;2023-03-03T05:58:23;49.40;;;17.08;;
69511;SDS011;56709;52.036;4.644;2023-03-03T06:00:49;52.45;;;18.45;;
69511;SDS011;56709;52.036;4.644;2023-03-03T06:03:14;50.63;;;18.25;;
69511;SDS011;56709;52.036;4.644;2023-03-03T06:05:41;51.97;;;17.10;;
69511;SDS011;56709;52.036;4.644;2023-03-03T06:08:06;51.95;;;18.88;;
69511;SDS011;56709;52.036;4.644;2023-03-03T06:10:31;55.25;;;17.52;;
69511;SDS011;56709;52.036;4.644;2023-03-03T06:12:57;51.33;;;17.60;;
69511;SDS011;56709;52.036;4.644;2023-03-03T06:15:23;46.30;;;16.58;;
69511;SDS011;56709;52.036;4.644;2023-03-03T06:17:48;51.58;;;19.15;;
69511;SDS011;56709;52.036;4.644;2023-03-03T06:20:14;45.65;;;17.30;;
69511;SDS011;56709;52.036;4.644;2023-03-03T06:22:39;51.03;;;17.45;;
69511;SDS011;56709;52.036;4.644;2023-03-03T06:25:04;49.85;;;17.45;;
69511;SDS011;56709;52.036;4.644;2023-03-03T06:27:30;52.60;;;18.00;;
69511;SDS011;56709;52.036;4.644;2023-03-03T06:29:56;56.58;;;17.70;;
69511;SDS011;56709;52.036;4.644;2023-03-03T06:32:21;43.65;;;16.50;;
69511;SDS011;56709;52.036;4.644;2023-03-03T06:34:46;53.30;;;16.52;;
69511;SDS011;56709;52.036;4.644;2023-03-03T06:37:12;49.65;;;16.70;;
69511;SDS011;56709;52.036;4.644;2023-03-03T06:39:38;48.42;;;17.23;;
69511;SDS011;56709;52.036;4.644;2023-03-03T06:42:03;49.83;;;17.67;;
69511;SDS011;56709;52.036;4.644;2023-03-03T06:44:28;50.88;;;18.30;;
69511;SDS011;56709;52.036;4.644;2023-03-03T06:46:54;40.25;;;16.10;;
69511;SDS011;56709;52.036;4.644;2023-03-03T06:49:21;45.63;;;16.88;;
69511;SDS011;56709;52.036;4.644;2023-03-03T06:51:47;41.25;;;15.50;;
69511;SDS011;56709;52.036;4.644;2023-03-03T06:54:16;43.45;;;16.38;;
69511;SDS011;56709;52.036;4.644;2023-03-03T06:56:43;46.83;;;16.98;;
69511;SDS011;56709;52.036;4.644;2023-03-03T06:59:14;41.30;;;15.82;;
69511;SDS011;56709;52.036;4.644;2023-03-03T07:01:44;46.15;;;16.08;;
69511;SDS011;56709;52.036;4.644;2023-03-03T07:04:27;38.40;;;17.15;;
69511;SDS011;56709;52.036;4.644;2023-03-03T07:06:55;43.13;;;16.23;;
69511;SDS011;56709;52.036;4.644;2023-03-03T07:09:26;37.60;;;15.68;;
69511;SDS011;56709;52.036;4.644;2023-03-03T07:11:55;38.08;;;15.23;;
69511;SDS011;56709;52.036;4.644;2023-03-03T07:14:31;35.63;;;14.63;;
69511;SDS011;56709;52.036;4.644;2023-03-03T07:17:00;35.42;;;15.38;;
69511;SDS011;56709;52.036;4.644;2023-03-03T07:19:33;38.28;;;16.35;;
69511;SDS011;56709;52.036;4.644;2023-03-03T07:22:00;38.70;;;15.93;;
69511;SDS011;56709;52.036;4.644;2023-03-03T07:24:35;40.83;;;15.77;;
69511;SDS011;56709;52.036;4.644;2023-03-03T07:29:29;42.50;;;15.65;;
69511;SDS011;56709;52.036;4.644;2023-03-03T07:31:55;32.92;;;14.65;;
69511;SDS011;56709;52.036;4.644;2023-03-03T07:37:03;43.10;;;16.17;;
69511;SDS011;56709;52.036;4.644;2023-03-03T07:39:37;36.00;;;15.48;;
69511;SDS011;56709;52.036;4.644;2023-03-03T07:44:36;39.47;;;14.25;;
69511;SDS011;56709;52.036;4.644;2023-03-03T07:47:11;30.88;;;14.38;;
69511;SDS011;56709;52.036;4.644;2023-03-03T07:49:44;33.30;;;14.30;;
69511;SDS011;56709;52.036;4.644;2023-03-03T07:52:27;35.03;;;16.17;;
69511;SDS011;56709;52.036;4.644;2023-03-03T07:54:56;31.95;;;14.73;;
69511;SDS011;56709;52.036;4.644;2023-03-03T07:57:36;31.98;;;14.90;;
69511;SDS011;56709;52.036;4.644;2023-03-03T08:02:46;33.58;;;15.10;;
69511;SDS011;56709;52.036;4.644;2023-03-03T08:05:32;31.65;;;12.77;;
69511;SDS011;56709;52.036;4.644;2023-03-03T08:08:02;31.50;;;13.63;;
69511;SDS011;56709;52.036;4.644;2023-03-03T08:10:48;27.83;;;14.52;;
69511;SDS011;56709;52.036;4.644;2023-03-03T08:18:34;22.88;;;11.90;;
69511;SDS011;56709;52.036;4.644;2023-03-03T08:21:06;23.73;;;12.43;;
69511;SDS011;56709;52.036;4.644;2023-03-03T08:23:33;27.80;;;12.23;;
69511;SDS011;56709;52.036;4.644;2023-03-03T08:25:59;23.67;;;11.82;;
69511;SDS011;56709;52.036;4.644;2023-03-03T08:28:24;28.00;;;12.70;;
69511;SDS011;56709;52.036;4.644;2023-03-03T08:30:50;24.42;;;12.65;;
69511;SDS011;56709;52.036;4.644;2023-03-03T08:33:16;31.65;;;13.63;;
69511;SDS011;56709;52.036;4.644;2023-03-03T08:35:42;35.38;;;15.38;;
69511;SDS011;56709;52.036;4.644;2023-03-03T08:38:07;28.83;;;13.25;;
69511;SDS011;56709;52.036;4.644;2023-03-03T08:40:33;26.75;;;12.93;;
69511;SDS011;56709;52.036;4.644;2023-03-03T08:43:00;28.58;;;12.15;;
69511;SDS011;56709;52.036;4.644;2023-03-03T08:45:25;22.48;;;11.38;;
69511;SDS011;56709;52.036;4.644;2023-03-03T08:47:51;25.10;;;11.48;;
69511;SDS011;56709;52.036;4.644;2023-03-03T08:50:17;23.08;;;11.60;;
69511;SDS011;56709;52.036;4.644;2023-03-03T08:52:43;21.35;;;10.55;;
69511;SDS011;56709;52.036;4.644;2023-03-03T08:55:08;22.58;;;10.35;;
69511;SDS011;56709;52.036;4.644;2023-03-03T08:57:34;21.85;;;9.63;;
69511;SDS011;56709;52.036;4.644;2023-03-03T08:59:59;23.63;;;9.95;;
69511;SDS011;56709;52.036;4.644;2023-03-03T09:02:25;18.70;;;10.05;;
69511;SDS011;56709;52.036;4.644;2023-03-03T09:04:50;20.52;;;10.30;;
69511;SDS011;56709;52.036;4.644;2023-03-03T09:07:16;16.23;;;9.57;;
69511;SDS011;56709;52.036;4.644;2023-03-03T09:09:41;18.10;;;9.05;;
69511;SDS011;56709;52.036;4.644;2023-03-03T09:15:14;18.52;;;8.63;;
69511;SDS011;56709;52.036;4.644;2023-03-03T09:17:41;14.85;;;7.93;;
69511;SDS011;56709;52.036;4.644;2023-03-03T09:22:48;16.60;;;7.95;;
69511;SDS011;56709;52.036;4.644;2023-03-03T09:25:21;14.48;;;8.18;;
69511;SDS011;56709;52.036;4.644;2023-03-03T09:27:55;16.63;;;8.43;;
69511;SDS011;56709;52.036;4.644;2023-03-03T09:33:00;11.38;;;7.38;;
69511;SDS011;56709;52.036;4.644;2023-03-03T09:37:59;10.60;;;6.35;;
69511;SDS011;56709;52.036;4.644;2023-03-03T09:49:14;15.20;;;7.30;;
69511;SDS011;56709;52.036;4.644;2023-03-03T09:52:10;13.73;;;7.18;;
69511;SDS011;56709;52.036;4.644;2023-03-03T10:27:18;8.05;;;4.45;;
69511;SDS011;56709;52.036;4.644;2023-03-03T10:30:12;8.98;;;3.85;;
69511;SDS011;56709;52.036;4.644;2023-03-03T10:32:45;9.57;;;3.10;;
69511;SDS011;56709;52.036;4.644;2023-03-03T10:38:09;5.47;;;3.08;;
69511;SDS011;56709;52.036;4.644;2023-03-03T10:40:44;5.63;;;2.85;;
69511;SDS011;56709;52.036;4.644;2023-03-03T10:48:41;4.88;;;2.17;;
69511;SDS011;56709;52.036;4.644;2023-03-03T10:51:18;4.78;;;2.40;;
69511;SDS011;56709;52.036;4.644;2023-03-03T11:08:10;3.58;;;2.25;;
69511;SDS011;56709;52.036;4.644;2023-03-03T11:10:44;4.72;;;2.40;;
69511;SDS011;56709;52.036;4.644;2023-03-03T11:15:50;4.53;;;1.85;;
69511;SDS011;56709;52.036;4.644;2023-03-03T11:28:52;3.45;;;1.90;;
69511;SDS011;56709;52.036;4.644;2023-03-03T11:37:20;3.03;;;1.40;;
69511;SDS011;56709;52.036;4.644;2023-03-03T11:39:48;4.25;;;1.85;;
69511;SDS011;56709;52.036;4.644;2023-03-03T11:42:18;4.05;;;1.70;;
69511;SDS011;56709;52.036;4.644;2023-03-03T11:44:59;3.13;;;1.80;;
69511;SDS011;56709;52.036;4.644;2023-03-03T11:47:37;4.22;;;1.80;;
69511;SDS011;56709;52.036;4.644;2023-03-03T11:50:17;2.35;;;0.98;;
69511;SDS011;56709;52.036;4.644;2023-03-03T11:55:36;3.22;;;1.67;;
69511;SDS011;56709;52.036;4.644;2023-03-03T12:00:51;3.92;;;1.67;;
69511;SDS011;56709;52.036;4.644;2023-03-03T12:11:36;5.60;;;1.83;;
69511;SDS011;56709;52.036;4.644;2023-03-03T12:14:12;6.97;;;1.70;;
69511;SDS011;56709;52.036;4.644;2023-03-03T12:17:02;7.57;;;2.10;;
69511;SDS011;56709;52.036;4.644;2023-03-03T12:19:32;4.72;;;1.92;;
69511;SDS011;56709;52.036;4.644;2023-03-03T12:22:21;4.68;;;2.03;;
69511;SDS011;56709;52.036;4.644;2023-03-03T12:27:37;4.50;;;1.73;;
69511;SDS011;56709;52.036;4.644;2023-03-03T12:30:25;2.55;;;1.60;;
69511;SDS011;56709;52.036;4.644;2023-03-03T12:41:14;2.97;;;1.88;;
69511;SDS011;56709;52.036;4.644;2023-03-03T12:43:51;4.72;;;1.70;;
69511;SDS011;56709;52.036;4.644;2023-03-03T12:48:48;6.03;;;2.13;;
69511;SDS011;56709;52.036;4.644;2023-03-03T13:02:55;1.98;;;1.30;;
69511;SDS011;56709;52.036;4.644;2023-03-03T13:05:55;2.83;;;1.45;;
69511;SDS011;56709;52.036;4.644;2023-03-03T13:11:13;2.67;;;1.50;;
69511;SDS011;56709;52.036;4.644;2023-03-03T13:13:56;5.60;;;1.55;;
69511;SDS011;56709;52.036;4.644;2023-03-03T13:16:47;3.28;;;1.73;;
69511;SDS011;56709;52.036;4.644;2023-03-03T13:19:28;3.25;;;1.80;;
69511;SDS011;56709;52.036;4.644;2023-03-03T13:21:59;5.05;;;1.60;;
69511;SDS011;56709;52.036;4.644;2023-03-03T13:24:53;5.90;;;1.98;;
69511;SDS011;56709;52.036;4.644;2023-03-03T13:27:19;2.58;;;1.48;;
69511;SDS011;56709;52.036;4.644;2023-03-03T13:30:13;6.90;;;2.05;;
69511;SDS011;56709;52.036;4.644;2023-03-03T13:38:32;4.82;;;1.55;;
69511;SDS011;56709;52.036;4.644;2023-03-03T13:41:09;2.05;;;1.60;;
69511;SDS011;56709;52.036;4.644;2023-03-03T13:46:27;5.05;;;2.30;;
69511;SDS011;56709;52.036;4.644;2023-03-03T14:10:32;3.22;;;1.80;;
69511;SDS011;56709;52.036;4.644;2023-03-03T14:13:08;3.40;;;1.70;;
69511;SDS011;56709;52.036;4.644;2023-03-03T14:15:55;4.65;;;1.60;;
69511;SDS011;56709;52.036;4.644;2023-03-03T14:21:08;2.20;;;1.13;;
69511;SDS011;56709;52.036;4.644;2023-03-03T14:26:09;4.72;;;1.33;;
69511;SDS011;56709;52.036;4.644;2023-03-03T14:28:39;2.45;;;1.27;;
69511;SDS011;56709;52.036;4.644;2023-03-03T14:31:28;3.42;;;1.33;;
69511;SDS011;56709;52.036;4.644;2023-03-03T14:36:31;3.45;;;1.40;;
69511;SDS011;56709;52.036;4.644;2023-03-03T14:38:59;3.90;;;1.45;;
69511;SDS011;56709;52.036;4.644;2023-03-03T14:41:35;3.92;;;1.63;;
69511;SDS011;56709;52.036;4.644;2023-03-03T14:47:26;5.32;;;1.80;;
69511;SDS011;56709;52.036;4.644;2023-03-03T14:49:45;2.65;;;1.80;;
69511;SDS011;56709;52.036;4.644;2023-03-03T14:54:40;3.05;;;1.70;;
69511;SDS011;56709;52.036;4.644;2023-03-03T14:57:17;2.97;;;1.80;;
69511;SDS011;56709;52.036;4.644;2023-03-03T15:02:57;6.93;;;1.88;;
69511;SDS011;56709;52.036;4.644;2023-03-03T15:05:50;5.55;;;2.00;;
69511;SDS011;56709;52.036;4.644;2023-03-03T15:08:16;4.55;;;1.83;;
69511;SDS011;56709;52.036;4.644;2023-03-03T15:10:52;5.25;;;2.20;;
69511;SDS011;56709;52.036;4.644;2023-03-03T15:18:23;6.88;;;2.35;;
69511;SDS011;56709;52.036;4.644;2023-03-03T15:21:08;4.30;;;2.30;;
69511;SDS011;56709;52.036;4.644;2023-03-03T15:31:41;3.85;;;2.17;;
69511;SDS011;56709;52.036;4.644;2023-03-03T15:45:46;4.35;;;3.00;;
69511;SDS011;56709;52.036;4.644;2023-03-03T15:56:55;7.93;;;3.55;;
69511;SDS011;56709;52.036;4.644;2023-03-03T16:02:24;8.00;;;4.05;;
69511;SDS011;56709;52.036;4.644;2023-03-03T16:05:06;5.30;;;3.40;;
69511;SDS011;56709;52.036;4.644;2023-03-03T16:10:28;4.53;;;2.47;;
69511;SDS011;56709;52.036;4.644;2023-03-03T16:13:04;3.88;;;2.70;;
69511;SDS011;56709;52.036;4.644;2023-03-03T16:15:47;5.80;;;3.00;;
69511;SDS011;56709;52.036;4.644;2023-03-03T16:23:56;7.07;;;2.63;;
69511;SDS011;56709;52.036;4.644;2023-03-03T16:32:10;3.70;;;1.98;;
69511;SDS011;56709;52.036;4.644;2023-03-03T16:34:56;3.47;;;2.30;;
69511;SDS011;56709;52.036;4.644;2023-03-03T16:37:26;5.45;;;2.20;;
69511;SDS011;56709;52.036;4.644;2023-03-03T16:42:37;4.60;;;2.53;;
69511;SDS011;56709;52.036;4.644;2023-03-03T16:55:51;7.63;;;2.80;;
69511;SDS011;56709;52.036;4.644;2023-03-03T17:06:54;6.32;;;2.40;;
69511;SDS011;56709;52.036;4.644;2023-03-03T17:09:30;7.65;;;2.35;;
69511;SDS011;56709;52.036;4.644;2023-03-03T17:17:33;13.63;;;2.47;;
69511;SDS011;56709;52.036;4.644;2023-03-03T17:25:22;5.10;;;2.42;;
69511;SDS011;56709;52.036;4.644;2023-03-03T17:28:24;9.27;;;2.95;;
69511;SDS011;56709;52.036;4.644;2023-03-03T17:33:48;10.60;;;2.88;;
69511;SDS011;56709;52.036;4.644;2023-03-03T17:36:45;10.13;;;2.80;;
69511;SDS011;56709;52.036;4.644;2023-03-03T17:39:28;10.48;;;2.67;;
69511;SDS011;56709;52.036;4.644;2023-03-03T17:42:10;10.32;;;2.80;;
69511;SDS011;56709;52.036;4.644;2023-03-03T17:44:53;8.43;;;2.83;;
69511;SDS011;56709;52.036;4.644;2023-03-03T17:50:32;9.00;;;1.90;;
69511;SDS011;56709;52.036;4.644;2023-03-03T17:56:23;10.23;;;2.30;;
69511;SDS011;56709;52.036;4.644;2023-03-03T18:10:09;13.15;;;2.90;;
69511;SDS011;56709;52.036;4.644;2023-03-03T18:16:05;11.27;;;2.80;;
69511;SDS011;56709;52.036;4.644;2023-03-03T18:23:49;12.80;;;2.70;;
69511;SDS011;56709;52.036;4.644;2023-03-03T18:26:28;15.52;;;2.97;;
69511;SDS011;56709;52.036;4.644;2023-03-03T18:29:05;11.57;;;2.80;;
69511;SDS011;56709;52.036;4.644;2023-03-03T18:36:54;14.27;;;3.15;;
69511;SDS011;56709;52.036;4.644;2023-03-03T18:42:09;12.27;;;2.47;;
69511;SDS011;56709;52.036;4.644;2023-03-03T18:44:37;12.60;;;2.33;;
69511;SDS011;56709;52.036;4.644;2023-03-03T18:47:03;16.67;;;3.80;;
69511;SDS011;56709;52.036;4.644;2023-03-03T18:52:30;8.98;;;2.47;;
69511;SDS011;56709;52.036;4.644;2023-03-03T18:57:35;15.80;;;3.58;;
69511;SDS011;56709;52.036;4.644;2023-03-03T19:00:15;15.32;;;3.15;;
69511;SDS011;56709;52.036;4.644;2023-03-03T19:02:53;12.30;;;3.22;;
69511;SDS011;56709;52.036;4.644;2023-03-03T19:05:30;11.77;;;4.18;;
69511;SDS011;56709;52.036;4.644;2023-03-03T19:08:01;14.57;;;3.45;;
69511;SDS011;56709;52.036;4.644;2023-03-03T19:10:43;11.85;;;3.47;;
69511;SDS011;56709;52.036;4.644;2023-03-03T19:15:57;10.48;;;3.25;;
69511;SDS011;56709;52.036;4.644;2023-03-03T19:18:27;13.15;;;2.92;;
69511;SDS011;56709;52.036;4.644;2023-03-03T19:23:21;10.75;;;3.47;;
69511;SDS011;56709;52.036;4.644;2023-03-03T19:26:18;16.55;;;4.32;;
69511;SDS011;56709;52.036;4.644;2023-03-03T19:29:08;12.88;;;3.60;;
69511;SDS011;56709;52.036;4.644;2023-03-03T19:34:59;18.42;;;3.25;;
69511;SDS011;56709;52.036;4.644;2023-03-03T19:37:41;7.57;;;2.65;;
69511;SDS011;56709;52.036;4.644;2023-03-03T19:56:47;16.35;;;4.03;;
69511;SDS011;56709;52.036;4.644;2023-03-03T20:13:17;17.17;;;4.45;;
69511;SDS011;56709;52.036;4.644;2023-03-03T20:32:12;20.80;;;5.78;;
69511;SDS011;56709;52.036;4.644;2023-03-03T20:34:47;12.23;;;4.90;;
69511;SDS011;56709;52.036;4.644;2023-03-03T20:37:19;19.50;;;6.18;;
69511;SDS011;56709;52.036;4.644;2023-03-03T20:42:35;17.20;;;5.40;;
69511;SDS011;56709;52.036;4.644;2023-03-03T20:50:14;13.73;;;3.88;;
69511;SDS011;56709;52.036;4.644;2023-03-03T20:55:42;19.85;;;4.88;;
69511;SDS011;56709;52.036;4.644;2023-03-03T21:01:07;17.35;;;3.67;;
69511;SDS011;56709;52.036;4.644;2023-03-03T21:03:35;15.25;;;3.10;;
69511;SDS011;56709;52.036;4.644;2023-03-03T21:06:04;12.98;;;3.13;;
69511;SDS011;56709;52.036;4.644;2023-03-03T21:08:38;12.85;;;3.13;;
69511;SDS011;56709;52.036;4.644;2023-03-03T21:11:04;15.05;;;3.10;;
69511;SDS011;56709;52.036;4.644;2023-03-03T21:16:02;18.90;;;4.05;;
69511;SDS011;56709;52.036;4.644;2023-03-03T21:18:33;13.95;;;3.05;;
69511;SDS011;56709;52.036;4.644;2023-03-03T21:20:58;13.07;;;3.63;;
69511;SDS011;56709;52.036;4.644;2023-03-03T21:23:24;12.40;;;3.67;;
69511;SDS011;56709;52.036;4.644;2023-03-03T21:25:53;13.27;;;3.95;;
69511;SDS011;56709;52.036;4.644;2023-03-03T21:28:30;22.52;;;3.42;;
69511;SDS011;56709;52.036;4.644;2023-03-03T21:31:10;13.90;;;4.65;;
69511;SDS011;56709;52.036;4.644;2023-03-03T21:33:42;13.10;;;3.80;;
69511;SDS011;56709;52.036;4.644;2023-03-03T21:36:57;16.17;;;3.55;;
69511;SDS011;56709;52.036;4.644;2023-03-03T21:38:56;18.73;;;3.38;;
69511;SDS011;56709;52.036;4.644;2023-03-03T21:41:22;11.73;;;3.15;;